createdAt,value
2023-12-08T00:00:16.793Z,3.88
2023-12-08T00:02:45.747Z,4.25
2023-12-08T00:05:15.616Z,4.07
2023-12-08T00:07:44.935Z,4.75
2023-12-08T00:10:13.859Z,4.43
2023-12-08T00:12:42.721Z,4.50
2023-12-08T00:15:13.123Z,4.35
2023-12-08T00:17:41.987Z,5.57
2023-12-08T00:20:12.141Z,3.95
2023-12-08T00:22:41.063Z,3.47
2023-12-08T00:25:10.450Z,6.68
2023-12-08T00:27:39.525Z,4.63
2023-12-08T00:30:09.279Z,5.45
2023-12-08T00:32:39.741Z,5.13
2023-12-08T00:35:09.966Z,8.10
2023-12-08T00:37:38.768Z,4.38
2023-12-08T00:40:09.648Z,5.93
2023-12-08T00:42:38.545Z,6.50
2023-12-08T00:45:07.733Z,4.97
2023-12-08T00:47:36.884Z,5.32
2023-12-08T00:50:09.372Z,4.38
2023-12-08T00:52:38.435Z,6.30
2023-12-08T00:55:08.868Z,5.95
2023-12-08T00:57:37.737Z,7.95
2023-12-08T01:00:07.689Z,5.93
2023-12-08T01:02:36.698Z,4.40
2023-12-08T01:05:08.109Z,5.40
2023-12-08T01:07:36.999Z,4.82
2023-12-08T01:10:08.454Z,7.82
2023-12-08T01:12:37.603Z,8.00
2023-12-08T01:15:07.758Z,5.50
2023-12-08T01:17:36.683Z,6.60
2023-12-08T01:20:08.791Z,5.95
2023-12-08T01:22:37.600Z,5.43
2023-12-08T01:25:07.301Z,5.68
2023-12-08T01:27:36.144Z,7.28
2023-12-08T01:30:06.500Z,7.32
2023-12-08T01:32:35.543Z,6.38
2023-12-08T01:35:04.656Z,6.28
2023-12-08T01:37:35.105Z,6.30
2023-12-08T01:40:04.515Z,5.93
2023-12-08T01:42:33.490Z,6.88
2023-12-08T01:45:02.280Z,5.97
2023-12-08T01:47:31.723Z,7.43
2023-12-08T01:50:00.675Z,6.18
2023-12-08T01:52:29.542Z,9.07
2023-12-08T01:55:01.612Z,7.75
2023-12-08T01:57:30.748Z,5.43
2023-12-08T02:00:00.488Z,6.68
2023-12-08T02:02:29.437Z,8.27
2023-12-08T02:05:00.328Z,6.35
2023-12-08T02:07:29.564Z,7.70
2023-12-08T02:09:59.855Z,7.53
2023-12-08T02:12:28.834Z,8.15
2023-12-08T02:14:57.703Z,5.65
2023-12-08T02:17:32.383Z,6.45
2023-12-08T02:20:04.420Z,7.10
2023-12-08T02:22:34.390Z,7.63
2023-12-08T02:25:04.915Z,6.82
2023-12-08T02:27:33.818Z,7.22
2023-12-08T02:30:02.798Z,7.97
2023-12-08T02:32:37.455Z,8.40
2023-12-08T02:35:09.371Z,10.15
2023-12-08T02:37:39.575Z,6.57
2023-12-08T02:40:10.652Z,6.43
2023-12-08T02:42:39.642Z,8.23
2023-12-08T02:45:09.612Z,7.10
2023-12-08T02:47:38.482Z,5.82
2023-12-08T02:50:08.415Z,9.50
2023-12-08T02:52:37.202Z,6.88
2023-12-08T02:55:07.008Z,7.78
2023-12-08T02:57:37.376Z,7.20
2023-12-08T03:00:10.967Z,8.85
2023-12-08T03:02:40.710Z,9.43
2023-12-08T03:05:10.811Z,10.30
2023-12-08T03:07:40.679Z,8.68
2023-12-08T03:10:11.141Z,9.02
2023-12-08T03:12:42.251Z,10.52
2023-12-08T03:15:11.459Z,11.45
2023-12-08T03:17:40.925Z,9.43
2023-12-08T03:20:11.292Z,10.85
2023-12-08T03:22:40.323Z,8.95
2023-12-08T03:25:09.787Z,11.43
2023-12-08T03:27:38.441Z,10.10
2023-12-08T03:30:10.296Z,10.20
2023-12-08T03:32:39.128Z,8.70
2023-12-08T03:35:09.054Z,11.32
2023-12-08T03:37:37.803Z,10.23
2023-12-08T03:40:07.930Z,8.98
2023-12-08T03:42:38.262Z,8.68
2023-12-08T03:45:09.040Z,9.10
2023-12-08T03:47:38.089Z,10.07
2023-12-08T03:50:07.689Z,11.75
2023-12-08T03:52:36.527Z,9.45
2023-12-08T03:55:05.847Z,8.77
2023-12-08T03:57:34.609Z,10.10
2023-12-08T04:00:03.474Z,9.60
2023-12-08T04:02:35.327Z,10.10
2023-12-08T04:05:04.132Z,10.18
2023-12-08T04:07:32.916Z,11.45
2023-12-08T04:10:01.968Z,12.88
2023-12-08T04:12:30.695Z,9.98
2023-12-08T04:14:59.542Z,16.33
2023-12-08T04:17:28.599Z,12.07
2023-12-08T04:19:59.017Z,7.88
2023-12-08T04:22:28.622Z,9.45
2023-12-08T04:24:57.409Z,7.82
2023-12-08T04:27:26.346Z,10.68
2023-12-08T04:29:55.247Z,12.73
2023-12-08T04:32:24.444Z,12.45
2023-12-08T04:34:53.281Z,9.93
2023-12-08T04:37:23.679Z,9.35
2023-12-08T04:39:52.600Z,8.77
2023-12-08T04:42:21.364Z,9.48
2023-12-08T04:44:50.101Z,10.90
2023-12-08T04:47:18.975Z,13.85
2023-12-08T04:49:47.841Z,10.88
2023-12-08T04:52:16.816Z,15.63
2023-12-08T04:54:47.447Z,11.63
2023-12-08T04:57:16.272Z,11.48
2023-12-08T04:59:45.317Z,12.65
2023-12-08T05:02:14.269Z,11.95
2023-12-08T05:04:43.753Z,12.55
2023-12-08T05:07:12.503Z,12.32
2023-12-08T05:09:41.262Z,14.70
2023-12-08T05:12:11.504Z,12.95
2023-12-08T05:14:40.657Z,16.60
2023-12-08T05:17:09.481Z,15.35
2023-12-08T05:19:38.364Z,13.05
2023-12-08T05:22:07.147Z,17.42
2023-12-08T05:24:35.846Z,13.98
2023-12-08T05:27:05.426Z,12.60
2023-12-08T05:29:35.635Z,18.77
2023-12-08T05:32:05.013Z,15.40
2023-12-08T05:34:33.787Z,18.15
2023-12-08T05:37:02.660Z,15.52
2023-12-08T05:39:31.529Z,15.50
2023-12-08T05:42:00.388Z,17.67
2023-12-08T05:44:29.137Z,16.77
2023-12-08T05:47:01.350Z,16.45
2023-12-08T05:49:30.615Z,21.55
2023-12-08T05:51:59.420Z,15.45
2023-12-08T05:54:28.231Z,13.75
2023-12-08T05:56:59.759Z,18.95
2023-12-08T05:59:28.630Z,28.70
2023-12-08T06:01:58.775Z,18.92
2023-12-08T06:04:27.604Z,19.20
2023-12-08T06:06:56.685Z,19.33
2023-12-08T06:09:25.826Z,15.32
2023-12-08T06:11:54.764Z,24.83
2023-12-08T06:14:23.517Z,20.05
2023-12-08T06:16:52.328Z,21.65
2023-12-08T06:19:22.644Z,25.38
2023-12-08T06:21:51.817Z,23.45
2023-12-08T06:24:20.577Z,23.58
2023-12-08T06:26:49.441Z,19.75
2023-12-08T06:29:18.633Z,22.25
2023-12-08T06:31:47.622Z,18.20
2023-12-08T06:34:17.445Z,24.83
2023-12-08T06:36:49.542Z,22.95
2023-12-08T06:39:18.813Z,26.40
2023-12-08T06:41:47.903Z,19.95
2023-12-08T06:44:16.784Z,22.73
2023-12-08T06:46:45.747Z,43.08
2023-12-08T06:49:16.277Z,21.80
2023-12-08T06:51:45.096Z,17.73
2023-12-08T06:54:15.879Z,16.58
2023-12-08T06:56:44.775Z,17.02
2023-12-08T06:59:13.641Z,21.98
2023-12-08T07:01:42.611Z,23.17
2023-12-08T07:04:11.674Z,19.15
2023-12-08T07:06:40.648Z,23.48
2023-12-08T07:09:10.579Z,25.60
2023-12-08T07:11:40.965Z,19.85
2023-12-08T07:14:09.759Z,22.98
2023-12-08T07:16:38.738Z,23.17
2023-12-08T07:19:07.721Z,22.60
2023-12-08T07:21:36.845Z,21.52
2023-12-08T07:24:06.139Z,16.98
2023-12-08T07:26:35.143Z,22.77
2023-12-08T07:29:05.690Z,26.67
2023-12-08T07:31:34.508Z,24.02
2023-12-08T07:34:04.267Z,19.55
2023-12-08T07:36:33.101Z,22.92
2023-12-08T07:39:02.017Z,22.08
2023-12-08T07:41:30.803Z,19.05
2023-12-08T07:44:00.890Z,20.27
2023-12-08T07:46:32.894Z,26.40
2023-12-08T07:49:01.843Z,24.85
2023-12-08T07:51:30.673Z,25.75
2023-12-08T07:54:00.193Z,23.17
2023-12-08T07:56:29.234Z,20.17
2023-12-08T07:58:58.083Z,17.55
2023-12-08T08:01:26.893Z,21.02
2023-12-08T08:03:57.099Z,22.50
2023-12-08T08:06:26.510Z,19.98
2023-12-08T08:08:55.976Z,24.83
2023-12-08T08:11:24.814Z,24.35
2023-12-08T08:13:53.735Z,26.33
2023-12-08T08:16:22.600Z,25.15
2023-12-08T08:18:51.593Z,25.10
2023-12-08T08:21:21.800Z,21.35
2023-12-08T08:23:50.639Z,25.77
2023-12-08T08:26:19.572Z,25.83
2023-12-08T08:28:48.352Z,22.25
2023-12-08T08:31:19.692Z,19.05
2023-12-08T08:33:48.734Z,25.90
2023-12-08T08:36:17.892Z,17.38
2023-12-08T08:38:48.220Z,19.02
2023-12-08T08:41:17.351Z,26.08
2023-12-08T08:43:46.398Z,19.92
2023-12-08T08:46:15.163Z,19.80
2023-12-08T08:48:44.207Z,17.23
2023-12-08T08:51:13.067Z,21.00
2023-12-08T08:53:41.954Z,19.52
2023-12-08T08:56:12.329Z,16.63
2023-12-08T08:58:41.181Z,17.73
2023-12-08T09:01:10.091Z,15.18
2023-12-08T09:03:38.889Z,23.02
2023-12-08T09:06:08.267Z,15.55
2023-12-08T09:08:38.447Z,19.13
2023-12-08T09:11:07.475Z,18.67
2023-12-08T09:13:37.791Z,17.85
2023-12-08T09:16:07.044Z,18.52
2023-12-08T09:18:35.847Z,19.88
2023-12-08T09:21:06.572Z,17.23
2023-12-08T09:23:35.894Z,18.33
2023-12-08T09:26:04.828Z,17.70
2023-12-08T09:28:33.557Z,21.63
2023-12-08T09:31:03.804Z,19.52
2023-12-08T09:33:32.681Z,14.35
2023-12-08T09:36:01.695Z,19.85
2023-12-08T09:38:34.165Z,28.20
2023-12-08T09:41:05.603Z,20.83
2023-12-08T09:43:41.681Z,21.15
2023-12-08T09:46:12.361Z,18.23
2023-12-08T09:48:43.037Z,19.45
2023-12-08T09:51:13.371Z,21.02
2023-12-08T09:53:43.596Z,17.23
2023-12-08T09:56:13.482Z,16.10
2023-12-08T09:58:47.234Z,16.42
2023-12-08T10:01:18.557Z,17.23
2023-12-08T10:03:47.587Z,22.25
2023-12-08T10:06:17.512Z,19.33
2023-12-08T10:08:47.192Z,19.65
2023-12-08T10:11:16.318Z,17.52
2023-12-08T10:13:45.325Z,22.95
2023-12-08T10:16:14.265Z,18.85
2023-12-08T10:18:44.466Z,16.48
2023-12-08T10:21:18.964Z,13.82
2023-12-08T10:23:48.969Z,15.60
2023-12-08T10:26:19.298Z,15.35
2023-12-08T10:28:48.063Z,16.77
2023-12-08T10:31:16.853Z,13.18
2023-12-08T10:33:47.090Z,16.95
2023-12-08T10:36:16.068Z,13.25
2023-12-08T10:38:45.734Z,13.90
2023-12-08T10:41:14.761Z,16.17
2023-12-08T10:43:44.705Z,16.63
2023-12-08T10:46:13.783Z,16.38
2023-12-08T10:48:43.313Z,9.98
2023-12-08T10:51:15.517Z,15.18
2023-12-08T10:53:46.510Z,12.60
2023-12-08T10:56:18.784Z,11.90
2023-12-08T10:58:50.457Z,14.68
2023-12-08T11:01:21.602Z,17.98
2023-12-08T11:04:00.815Z,14.98
2023-12-08T11:06:42.910Z,11.70
2023-12-08T11:09:13.626Z,28.92
2023-12-08T11:11:50.464Z,14.02
2023-12-08T11:14:29.861Z,19.30
2023-12-08T11:17:03.430Z,21.17
2023-12-08T11:19:35.213Z,16.52
2023-12-08T11:22:06.495Z,16.35
2023-12-08T11:24:35.725Z,15.23
2023-12-08T11:27:09.510Z,17.20
2023-12-08T11:29:47.438Z,18.90
2023-12-08T11:32:22.483Z,18.08
2023-12-08T11:34:56.644Z,14.60
2023-12-08T11:37:27.039Z,21.92
2023-12-08T11:40:04.464Z,18.20
2023-12-08T11:42:34.691Z,18.50
2023-12-08T11:45:04.565Z,18.38
2023-12-08T11:47:33.563Z,23.77
2023-12-08T11:50:05.094Z,19.63
2023-12-08T11:52:36.428Z,22.40
2023-12-08T11:55:13.719Z,18.33
2023-12-08T11:58:07.072Z,21.20
2023-12-08T12:00:37.333Z,26.27
2023-12-08T12:03:08.115Z,23.33
2023-12-08T12:05:39.718Z,18.90
2023-12-08T12:08:10.191Z,21.00
2023-12-08T12:10:42.213Z,17.55
2023-12-08T12:13:14.295Z,15.90
2023-12-08T12:15:44.192Z,14.63
2023-12-08T12:18:15.337Z,12.50
2023-12-08T12:20:46.461Z,17.38
2023-12-08T12:23:20.168Z,17.88
2023-12-08T12:25:50.097Z,19.40
2023-12-08T12:28:19.557Z,15.57
2023-12-08T12:30:51.194Z,21.15
2023-12-08T12:33:20.512Z,16.58
2023-12-08T12:35:54.322Z,20.88
2023-12-08T12:38:29.264Z,16.95
2023-12-08T12:40:58.085Z,30.67
2023-12-08T12:43:26.959Z,19.52
2023-12-08T12:45:57.202Z,15.25
2023-12-08T12:48:27.447Z,18.83
2023-12-08T12:50:56.407Z,15.95
2023-12-08T12:53:27.065Z,17.30
2023-12-08T12:56:08.011Z,17.90
2023-12-08T12:58:36.793Z,14.90
2023-12-08T13:01:12.804Z,11.30
2023-12-08T13:03:47.709Z,13.40
2023-12-08T13:06:28.878Z,13.65
2023-12-08T13:08:58.039Z,22.17
2023-12-08T13:11:29.004Z,11.82
2023-12-08T13:13:58.161Z,17.30
2023-12-08T13:16:27.118Z,12.63
2023-12-08T13:18:56.369Z,10.60
2023-12-08T13:21:25.714Z,11.98
2023-12-08T13:23:54.629Z,10.63
2023-12-08T13:26:23.591Z,11.57
2023-12-08T13:28:53.841Z,12.68
2023-12-08T13:31:23.785Z,13.68
2023-12-08T13:33:52.721Z,10.45
2023-12-08T13:36:21.839Z,13.02
2023-12-08T13:38:51.172Z,13.60
2023-12-08T13:41:20.080Z,13.82
2023-12-08T13:43:48.973Z,15.23
2023-12-08T13:46:19.288Z,15.98
2023-12-08T13:48:49.061Z,12.07
2023-12-08T13:51:37.272Z,16.08
2023-12-08T13:54:08.447Z,16.02
2023-12-08T13:56:37.272Z,13.38
2023-12-08T13:59:06.992Z,14.38
2023-12-08T14:01:37.270Z,15.15
2023-12-08T14:04:06.443Z,10.45
2023-12-08T14:06:35.395Z,13.13
2023-12-08T14:09:03.526Z,14.15
2023-12-08T14:11:32.322Z,14.65
2023-12-08T14:14:01.229Z,14.93
2023-12-08T14:16:30.073Z,20.55
2023-12-08T14:19:00.420Z,17.73
2023-12-08T14:21:29.363Z,15.13
2023-12-08T14:23:58.309Z,18.15
2023-12-08T14:26:27.175Z,15.02
2023-12-08T14:28:56.022Z,16.35
2023-12-08T14:31:24.825Z,15.27
2023-12-08T14:33:53.987Z,23.92
2023-12-08T14:36:24.398Z,17.17
2023-12-08T14:38:53.236Z,13.82
2023-12-08T14:41:22.147Z,22.50
2023-12-08T14:43:50.960Z,19.17
2023-12-08T14:46:20.266Z,16.27
2023-12-08T14:48:50.432Z,16.90
2023-12-08T14:51:21.518Z,17.85
2023-12-08T14:53:52.982Z,17.55
2023-12-08T14:56:22.258Z,14.43
2023-12-08T14:58:51.085Z,20.88
2023-12-08T15:01:22.297Z,38.55
2023-12-08T15:03:51.438Z,14.88
2023-12-08T15:06:20.603Z,16.35
2023-12-08T15:08:49.624Z,17.92
2023-12-08T15:11:21.623Z,16.00
2023-12-08T15:13:50.480Z,19.73
2023-12-08T15:16:19.415Z,23.55
2023-12-08T15:18:48.282Z,20.13
2023-12-08T15:21:22.619Z,22.65
2023-12-08T15:23:57.833Z,15.75
2023-12-08T15:26:29.031Z,17.25
2023-12-08T15:28:57.854Z,22.02
2023-12-08T15:31:27.704Z,26.85
2023-12-08T15:33:57.394Z,13.45
2023-12-08T15:36:26.326Z,17.80
2023-12-08T15:38:55.373Z,16.75
2023-12-08T15:41:24.305Z,17.23
2023-12-08T15:43:54.421Z,19.20
2023-12-08T15:46:23.794Z,21.17
2023-12-08T15:48:52.978Z,12.10
2023-12-08T15:51:22.027Z,17.83
2023-12-08T15:53:51.139Z,17.63
2023-12-08T15:56:20.080Z,17.50
2023-12-08T15:58:48.899Z,9.95
2023-12-08T16:01:23.436Z,16.88
2023-12-08T16:03:52.390Z,14.60
2023-12-08T16:06:21.316Z,20.00
2023-12-08T16:08:50.440Z,12.52
2023-12-08T16:11:25.781Z,20.95
2023-12-08T16:13:54.699Z,16.92
2023-12-08T16:16:24.887Z,11.55
2023-12-08T16:18:53.859Z,20.05
2023-12-08T16:21:24.097Z,14.48
2023-12-08T16:23:53.011Z,17.52
2023-12-08T16:26:22.082Z,17.90
2023-12-08T16:28:50.946Z,18.60
2023-12-08T16:31:19.896Z,12.77
2023-12-08T16:33:50.417Z,19.30
2023-12-08T16:36:19.859Z,24.95
2023-12-08T16:38:48.951Z,17.65
2023-12-08T16:41:17.893Z,18.95
2023-12-08T16:43:46.683Z,22.20
2023-12-08T16:46:15.568Z,37.30
2023-12-08T16:48:44.581Z,20.85
2023-12-08T16:51:14.959Z,25.55
2023-12-08T16:53:43.824Z,21.35
2023-12-08T16:56:12.746Z,37.72
2023-12-08T16:58:41.783Z,45.35
2023-12-08T17:01:10.577Z,28.70
2023-12-08T17:03:39.687Z,22.48
2023-12-08T17:06:09.199Z,24.70
2023-12-08T17:08:44.453Z,25.42
2023-12-08T17:11:13.390Z,16.33
2023-12-08T17:13:43.436Z,27.15
2023-12-08T17:16:12.293Z,24.80
2023-12-08T17:18:41.442Z,17.02
2023-12-08T17:21:10.374Z,24.42
2023-12-08T17:23:40.666Z,16.55
2023-12-08T17:26:09.651Z,22.15
2023-12-08T17:28:38.807Z,21.33
2023-12-08T17:31:07.826Z,21.17
2023-12-08T17:33:36.776Z,24.58
2023-12-08T17:36:06.383Z,21.17
2023-12-08T17:38:35.141Z,26.55
2023-12-08T17:41:06.568Z,23.95
2023-12-08T17:43:35.500Z,20.67
2023-12-08T17:46:04.539Z,19.85
2023-12-08T17:48:33.370Z,17.02
2023-12-08T17:51:02.321Z,31.52
2023-12-08T17:53:31.168Z,15.52
2023-12-08T17:55:59.944Z,15.40
2023-12-08T17:58:30.066Z,18.98
2023-12-08T18:00:58.860Z,19.92
2023-12-08T18:03:30.027Z,28.83
2023-12-08T18:05:59.193Z,19.38
2023-12-08T18:08:28.204Z,16.00
2023-12-08T18:10:57.768Z,33.38
2023-12-08T18:13:27.218Z,19.20
2023-12-08T18:15:57.348Z,25.02
2023-12-08T18:18:26.212Z,22.58
2023-12-08T18:20:55.042Z,22.40
2023-12-08T18:23:23.796Z,15.88
2023-12-08T18:25:54.729Z,12.27
2023-12-08T18:30:56.694Z,18.80
2023-12-08T18:33:25.603Z,22.85
2023-12-08T18:35:54.473Z,20.23
2023-12-08T18:38:23.205Z,17.70
2023-12-08T18:40:51.931Z,22.30
2023-12-08T18:43:20.739Z,20.98
2023-12-08T18:45:49.563Z,30.38
2023-12-08T18:48:19.889Z,14.32
2023-12-08T18:50:48.733Z,18.25
2023-12-08T18:53:17.471Z,21.23
2023-12-08T18:55:46.355Z,18.48
2023-12-08T18:58:17.075Z,17.50
2023-12-08T19:00:46.001Z,25.55
2023-12-08T19:03:14.896Z,21.15
2023-12-08T19:05:45.214Z,18.63
2023-12-08T19:08:14.213Z,19.33
2023-12-08T19:10:43.133Z,23.38
2023-12-08T19:13:11.989Z,24.60
2023-12-08T19:15:40.787Z,21.75
2023-12-08T19:18:09.930Z,25.70
2023-12-08T19:20:42.158Z,15.13
2023-12-08T19:23:12.851Z,20.05
2023-12-08T19:25:44.000Z,19.48
2023-12-08T19:28:13.180Z,19.90
2023-12-08T19:30:42.209Z,12.18
2023-12-08T19:33:11.219Z,14.80
2023-12-08T19:35:40.272Z,22.45
2023-12-08T19:38:09.574Z,13.77
2023-12-08T19:40:39.747Z,17.25
2023-12-08T19:43:08.536Z,14.60
2023-12-08T19:45:37.426Z,16.65
2023-12-08T19:48:06.889Z,19.98
2023-12-08T19:50:35.776Z,17.48
2023-12-08T19:53:05.170Z,17.02
2023-12-08T19:55:34.237Z,17.40
2023-12-08T19:58:04.412Z,15.90
2023-12-08T20:00:33.322Z,16.95
2023-12-08T20:03:02.331Z,19.60
2023-12-08T20:05:31.138Z,19.45
2023-12-08T20:07:59.916Z,19.77
2023-12-08T20:10:28.858Z,12.73
2023-12-08T20:12:57.585Z,18.33
2023-12-08T20:15:28.873Z,17.63
2023-12-08T20:17:57.813Z,23.48
2023-12-08T20:20:26.746Z,18.02
2023-12-08T20:22:55.472Z,17.13
2023-12-08T20:25:24.243Z,17.67
2023-12-08T20:27:52.957Z,18.63
2023-12-08T20:30:21.810Z,22.80
2023-12-08T20:32:52.463Z,11.23
2023-12-08T20:35:21.316Z,19.83
2023-12-08T20:37:50.164Z,18.52
2023-12-08T20:40:19.028Z,16.85
2023-12-08T20:42:47.848Z,15.85
2023-12-08T20:45:16.813Z,14.95
2023-12-08T20:47:45.844Z,16.85
2023-12-08T20:50:18.733Z,25.35
2023-12-08T20:52:47.846Z,20.10
2023-12-08T20:55:16.901Z,14.48
2023-12-08T20:57:45.952Z,22.92
2023-12-08T21:00:17.244Z,14.35
2023-12-08T21:02:46.247Z,19.23
2023-12-08T21:05:16.633Z,15.35
2023-12-08T21:07:45.459Z,19.15
2023-12-08T21:10:14.370Z,21.70
2023-12-08T21:12:43.176Z,20.27
2023-12-08T21:15:12.225Z,12.30
2023-12-08T21:17:41.135Z,21.75
2023-12-08T21:20:11.786Z,16.73
2023-12-08T21:22:45.009Z,16.15
2023-12-08T21:25:14.019Z,15.00
2023-12-08T21:27:44.150Z,14.45
2023-12-08T21:30:13.505Z,18.52
2023-12-08T21:32:42.632Z,31.45
2023-12-08T21:35:11.552Z,34.90
2023-12-08T21:37:41.955Z,16.42
2023-12-08T21:40:11.864Z,18.10
2023-12-08T21:42:45.030Z,21.10
2023-12-08T21:45:13.851Z,28.08
2023-12-08T21:47:42.800Z,19.45
2023-12-08T21:50:12.002Z,18.63
2023-12-08T21:52:42.461Z,13.32
2023-12-08T21:55:11.928Z,24.95
2023-12-08T21:57:40.923Z,18.42
2023-12-08T22:00:11.036Z,22.77
2023-12-08T22:02:43.103Z,21.13
2023-12-08T22:05:12.256Z,24.80
2023-12-08T22:07:42.619Z,23.13
2023-12-08T22:10:11.964Z,21.08
2023-12-08T22:12:40.892Z,18.42
2023-12-08T22:15:10.717Z,23.75
2023-12-08T22:17:39.666Z,15.88
2023-12-08T22:20:11.867Z,26.20
2023-12-08T22:22:41.982Z,20.67
2023-12-08T22:25:12.439Z,29.27
2023-12-08T22:27:41.637Z,22.52
2023-12-08T22:30:11.387Z,19.50
2023-12-08T22:32:40.600Z,17.92
2023-12-08T22:35:09.662Z,21.65
2023-12-08T22:37:39.339Z,23.38
2023-12-08T22:40:10.913Z,13.40
2023-12-08T22:42:39.739Z,16.77
2023-12-08T22:45:09.857Z,15.38
2023-12-08T22:47:38.670Z,22.05
2023-12-08T22:50:08.088Z,16.20
2023-12-08T22:52:36.993Z,10.85
2023-12-08T22:55:06.273Z,16.25
2023-12-08T22:57:36.376Z,19.05
2023-12-08T23:00:07.847Z,17.65
2023-12-08T23:02:36.810Z,20.38
2023-12-08T23:05:06.124Z,12.98
2023-12-08T23:07:35.000Z,17.58
2023-12-08T23:10:06.706Z,12.75
2023-12-08T23:12:39.858Z,18.67
2023-12-08T23:15:10.255Z,18.77
2023-12-08T23:17:39.704Z,15.38
2023-12-08T23:20:08.940Z,13.70
2023-12-08T23:22:37.685Z,13.90
2023-12-08T23:25:07.549Z,21.65
2023-12-08T23:27:36.435Z,22.80
2023-12-08T23:30:07.767Z,16.73
2023-12-08T23:32:37.275Z,21.25
2023-12-08T23:35:08.029Z,22.20
2023-12-08T23:37:36.932Z,19.05
2023-12-08T23:40:06.696Z,17.35
